Time;durP1;ratioP1;P1;durP2;ratioP2;P2;SDS_P1;SDS_P2;PMS_P1;PMS_P2;Temp;Humidity;BMP_temperature;BMP_pressure;BME280_temperature;BME280_humidity;BME280_pressure;Samples;Min_cycle;Max_cycle;Signal;HPM_P1;HPM_P2
2023/01/06 00:00:36;;;;;;;1999.90;397.65;;;16.70;99.90;;;;;;4927023;29;20047;-84
2023/01/06 00:03:02;;;;;;;1999.90;248.85;;;15.40;99.90;;;;;;4945114;28;20042;-81
2023/01/06 00:05:28;;;;;;;1999.90;732.42;;;15.60;99.90;;;;;;4938404;28;20380;-82
2023/01/06 00:07:54;;;;;;;1999.90;527.90;;;15.30;99.90;;;;;;4946240;28;20070;-81
2023/01/06 00:10:20;;;;;;;1999.90;811.75;;;15.60;99.90;;;;;;4949101;28;20043;-82
2023/01/06 00:12:47;;;;;;;1999.90;388.55;;;15.40;99.90;;;;;;4947222;28;20180;-81
2023/01/06 00:15:14;;;;;;;1999.90;768.63;;;16.10;99.90;;;;;;4946111;28;20070;-80
2023/01/06 00:17:40;;;;;;;1999.90;403.35;;;15.50;99.90;;;;;;4948259;28;20055;-82
2023/01/06 00:20:07;;;;;;;1999.90;613.80;;;15.90;99.90;;;;;;4965889;28;20038;-81
2023/01/06 00:22:32;;;;;;;1999.90;625.90;;;16.60;99.90;;;;;;4968038;28;20047;-81
2023/01/06 00:24:58;;;;;;;1999.90;962.13;;;16.80;99.90;;;;;;4955454;28;20142;-82
2023/01/06 00:27:24;;;;;;;1999.90;585.53;;;16.70;99.90;;;;;;4931943;29;20074;-82
2023/01/06 00:29:50;;;;;;;1999.90;488.85;;;17.10;99.90;;;;;;4933956;29;20086;-81
2023/01/06 00:32:17;;;;;;;1999.90;302.35;;;16.70;99.90;;;;;;4947691;28;20062;-88
2023/01/06 00:34:42;;;;;;;1999.90;803.43;;;16.80;99.90;;;;;;4946306;28;20485;-86
2023/01/06 00:37:08;;;;;;;1999.90;464.13;;;15.90;99.90;;;;;;4947919;28;20106;-80
2023/01/06 00:39:34;;;;;;;1999.90;766.20;;;15.90;99.90;;;;;;4948438;28;20420;-80
2023/01/06 00:42:02;;;;;;;1999.90;523.53;;;16.50;99.90;;;;;;4947577;28;20047;-82
2023/01/06 00:44:37;;;;;;;1999.90;467.33;;;16.70;99.90;;;;;;4947015;28;20139;-81
2023/01/06 00:47:07;;;;;;;1999.90;476.67;;;15.40;99.90;;;;;;4947782;28;20058;-86
2023/01/06 00:49:33;;;;;;;1999.90;398.38;;;15.60;99.90;;;;;;4948670;28;20130;-79
2023/01/06 00:51:59;;;;;;;1999.90;548.25;;;15.40;99.90;;;;;;4948527;28;20055;-80
2023/01/06 00:54:25;;;;;;;1999.90;435.40;;;16.10;99.90;;;;;;4947996;28;20043;-81
2023/01/06 00:56:52;;;;;;;1999.90;655.88;;;16.80;99.90;;;;;;4946632;28;20047;-83
2023/01/06 00:59:21;;;;;;;1999.90;568.65;;;15.80;99.90;;;;;;4946252;28;20495;-79
2023/01/06 01:01:48;;;;;;;1940.72;300.48;;;16.00;99.90;;;;;;4951945;28;20067;-78
2023/01/06 01:04:15;;;;;;;1999.90;653.38;;;15.50;99.90;;;;;;4948772;28;20066;-78
2023/01/06 01:06:42;;;;;;;1999.90;651.83;;;15.50;99.90;;;;;;4947271;28;20047;-84
2023/01/06 01:09:13;;;;;;;1999.90;896.97;;;15.70;99.90;;;;;;4948155;28;20039;-80
2023/01/06 01:14:23;;;;;;;1999.90;593.45;;;16.90;99.90;;;;;;4945905;29;20491;-81
2023/01/06 01:16:48;;;;;;;1999.90;726.90;;;15.30;99.90;;;;;;4944835;28;20039;-82
2023/01/06 01:19:15;;;;;;;1999.90;375.08;;;16.00;99.90;;;;;;4948809;28;20468;-81
2023/01/06 01:21:41;;;;;;;1999.90;651.20;;;15.80;99.90;;;;;;4955724;29;20066;-81
2023/01/06 01:24:08;;;;;;;1999.90;427.73;;;15.40;99.90;;;;;;4955853;28;20464;-86
2023/01/06 01:26:33;;;;;;;1999.90;148.45;;;16.60;99.90;;;;;;4944409;28;20448;-81
2023/01/06 01:29:00;;;;;;;1999.90;641.75;;;16.60;99.90;;;;;;4947706;28;20074;-81
2023/01/06 01:31:25;;;;;;;1999.90;999.90;;;15.30;99.90;;;;;;4946856;28;20046;-81
2023/01/06 01:33:51;;;;;;;1999.90;337.02;;;16.40;99.90;;;;;;4947694;28;20488;-81
2023/01/06 01:36:18;;;;;;;1999.90;480.73;;;15.40;99.90;;;;;;4945014;28;20059;-83
2023/01/06 01:38:44;;;;;;;1999.90;416.03;;;15.30;99.90;;;;;;4947367;29;20049;-80
2023/01/06 01:41:16;;;;;;;1999.90;626.60;;;16.50;99.90;;;;;;4948448;28;20101;-80
2023/01/06 01:43:54;;;;;;;1999.90;474.00;;;16.60;99.90;;;;;;4948345;28;20161;-82
2023/01/06 01:46:28;;;;;;;1999.90;157.90;;;15.30;99.90;;;;;;4944035;28;20583;-79
2023/01/06 01:48:56;;;;;;;1999.90;450.52;;;15.60;99.90;;;;;;4945186;28;20049;-82
2023/01/06 01:51:27;;;;;;;1999.90;188.88;;;16.50;99.90;;;;;;4945377;29;20055;-86
2023/01/06 01:53:56;;;;;;;1999.90;973.47;;;16.40;99.90;;;;;;4946078;28;20039;-79
2023/01/06 01:56:27;;;;;;;1999.90;337.30;;;16.10;99.90;;;;;;4946071;28;20102;-79
2023/01/06 01:59:09;;;;;;;1999.90;765.00;;;15.30;99.90;;;;;;4948574;28;20126;-80
2023/01/06 02:01:35;;;;;;;1999.90;681.70;;;16.40;99.90;;;;;;4949418;28;20480;-78
2023/01/06 02:04:02;;;;;;;1999.90;386.20;;;16.40;99.90;;;;;;4951448;28;20035;-79
2023/01/06 02:06:29;;;;;;;1999.90;139.93;;;15.30;99.90;;;;;;4947247;28;20178;-79
2023/01/06 02:09:09;;;;;;;1999.90;392.37;;;15.80;99.90;;;;;;4937327;28;20488;-78
2023/01/06 02:11:37;;;;;;;1950.57;553.83;;;15.30;99.90;;;;;;4944439;28;20081;-79
2023/01/06 02:14:11;;;;;;;;;;;16.30;99.90;;;;;;4947170;28;20047;-86
2023/01/06 02:16:45;;;;;;;1999.90;624.72;;;15.30;99.90;;;;;;4961939;28;20356;-79
2023/01/06 02:19:38;;;;;;;1999.90;786.05;;;15.20;99.90;;;;;;4946978;28;20106;-78
2023/01/06 02:22:21;;;;;;;1999.90;342.95;;;15.30;99.90;;;;;;4964438;28;20054;-83
2023/01/06 02:25:20;;;;;;;1999.90;999.90;;;15.20;99.90;;;;;;4952977;28;20067;-78
2023/01/06 02:28:01;;;;;;;1999.90;730.63;;;16.10;99.90;;;;;;4960021;28;20059;-78
2023/01/06 02:30:29;;;;;;;1999.90;375.77;;;15.60;99.90;;;;;;4926183;28;20047;-78
2023/01/06 02:33:06;;;;;;;1999.90;407.35;;;16.00;99.90;;;;;;4942715;28;20047;-81
2023/01/06 02:36:16;;;;;;;1999.90;180.18;;;16.00;99.90;;;;;;4945244;28;20395;-78
2023/01/06 02:39:26;;;;;;;1999.90;230.85;;;15.30;99.90;;;;;;4935140;28;20071;-83
2023/01/06 02:42:26;;;;;;;1999.90;999.90;;;15.30;99.90;;;;;;4944118;28;20134;-77
2023/01/06 02:45:12;;;;;;;1999.90;554.00;;;15.20;99.90;;;;;;4945478;28;20046;-78
2023/01/06 02:48:05;;;;;;;1999.90;161.10;;;15.10;99.90;;;;;;4946829;28;20134;-78
2023/01/06 02:50:51;;;;;;;1999.90;999.90;;;16.20;99.90;;;;;;4949969;28;20059;-82
2023/01/06 02:53:33;;;;;;;1805.78;297.48;;;15.30;99.90;;;;;;4945507;28;20464;-78
2023/01/06 02:55:59;;;;;;;1999.90;999.90;;;16.30;99.90;;;;;;4928369;29;20082;-78
2023/01/06 02:58:45;;;;;;;1999.90;999.90;;;16.30;99.90;;;;;;4941800;28;20137;-78
2023/01/06 03:01:17;;;;;;;1754.20;527.95;;;15.90;99.90;;;;;;4944517;28;20471;-78
2023/01/06 03:03:46;;;;;;;1999.90;999.90;;;15.20;99.90;;;;;;4946082;28;20213;-79
2023/01/06 03:06:16;;;;;;;1945.32;781.00;;;15.70;99.90;;;;;;4947558;28;20046;-77
2023/01/06 03:08:45;;;;;;;1999.90;499.00;;;15.20;99.90;;;;;;4946937;28;20051;-81
2023/01/06 03:11:11;;;;;;;1997.10;543.85;;;15.00;99.90;;;;;;4945721;28;20566;-77
2023/01/06 03:13:58;;;;;;;1777.75;50.55;;;16.30;99.90;;;;;;4955429;28;20472;-77
2023/01/06 03:16:23;;;;;;;1999.90;816.42;;;15.40;99.90;;;;;;4953682;28;20109;-77
2023/01/06 03:18:51;;;;;;;1999.90;842.25;;;15.20;99.90;;;;;;4948927;28;20039;-77
2023/01/06 03:21:21;;;;;;;1999.90;999.90;;;16.00;99.90;;;;;;4954297;28;20445;-81
2023/01/06 03:23:47;;;;;;;1999.90;348.58;;;15.00;99.90;;;;;;4960672;28;20046;-76
2023/01/06 03:26:13;;;;;;;1999.90;999.90;;;16.10;99.90;;;;;;4927917;29;20047;-78
2023/01/06 03:28:39;;;;;;;1999.90;999.90;;;16.30;99.90;;;;;;4944454;28;20039;-80
2023/01/06 03:31:26;;;;;;;1999.90;411.95;;;16.20;99.90;;;;;;4946541;28;21418;-76
2023/01/06 03:34:06;;;;;;;1999.90;268.35;;;16.10;99.90;;;;;;4943621;28;20050;-77
2023/01/06 03:36:59;;;;;;;1999.90;999.90;;;15.10;99.90;;;;;;4926821;28;20055;-81
2023/01/06 03:40:07;;;;;;;1999.90;790.15;;;14.50;99.90;;;;;;4945424;28;20102;-76
2023/01/06 03:45:53;;;;;;;1999.90;999.90;;;15.30;99.90;;;;;;4944726;28;20086;-85
2023/01/06 03:48:28;;;;;;;1999.90;689.10;;;16.10;99.90;;;;;;4944219;28;20114;-77
2023/01/06 03:51:01;;;;;;;1999.90;787.47;;;15.10;99.90;;;;;;4950441;28;20055;-77
2023/01/06 03:53:44;;;;;;;1999.90;124.07;;;16.00;99.90;;;;;;4944829;29;20039;-76
2023/01/06 03:56:24;;;;;;;1999.90;999.90;;;15.30;99.90;;;;;;4950832;28;20046;-77
2023/01/06 03:58:56;;;;;;;1999.90;776.53;;;15.40;99.90;;;;;;4940910;28;20047;-77
2023/01/06 04:01:23;;;;;;;1229.10;506.23;;;15.70;99.90;;;;;;4947490;28;20055;-77
2023/01/06 04:03:53;;;;;;;1959.07;765.78;;;16.20;99.90;;;;;;4951531;28;20518;-77
2023/01/06 04:06:20;;;;;;;1999.90;766.50;;;15.10;99.90;;;;;;4950432;28;20047;-76
2023/01/06 04:08:46;;;;;;;1903.80;769.35;;;15.20;99.90;;;;;;4951748;28;20395;-77
2023/01/06 04:12:37;;;;;;;1999.90;999.90;;;15.40;99.90;;;;;;4951516;28;20027;-77
2023/01/06 04:13:57;;;;;;;1999.90;627.55;;;16.00;99.90;;;;;;4949657;28;20384;-81
2023/01/06 04:16:23;;;;;;;1999.90;848.10;;;15.50;99.90;;;;;;4948187;28;20039;-82
2023/01/06 04:18:49;;;;;;;1999.90;798.88;;;15.60;99.90;;;;;;4953124;29;20505;-79
2023/01/06 04:21:15;;;;;;;1999.90;343.17;;;15.80;99.90;;;;;;4949814;29;20035;-76
2023/01/06 04:23:40;;;;;;;1999.90;999.90;;;15.40;99.90;;;;;;4949400;28;20392;-76
2023/01/06 04:26:06;;;;;;;1999.90;322.58;;;16.10;99.90;;;;;;4949825;28;20129;-75
2023/01/06 04:28:32;;;;;;;1999.90;999.90;;;15.50;99.90;;;;;;4948801;28;20058;-76
2023/01/06 04:30:59;;;;;;;1859.90;572.10;;;16.00;99.90;;;;;;4950890;28;20122;-76
2023/01/06 04:33:24;;;;;;;1999.90;999.90;;;15.20;99.90;;;;;;4951022;28;20098;-76
2023/01/06 04:35:50;;;;;;;1999.90;999.90;;;15.10;99.90;;;;;;4947142;28;20047;-76
2023/01/06 04:38:16;;;;;;;1999.90;999.90;;;16.10;99.90;;;;;;4951933;29;20059;-76
2023/01/06 04:40:42;;;;;;;1999.90;999.90;;;16.00;99.90;;;;;;4952063;28;20436;-80
2023/01/06 04:43:13;;;;;;;1999.90;999.90;;;16.10;99.90;;;;;;4949754;29;20543;-77
2023/01/06 04:45:39;;;;;;;1999.90;999.90;;;15.10;99.90;;;;;;4949374;28;20047;-77
2023/01/06 04:48:05;;;;;;;1999.90;999.90;;;16.20;99.90;;;;;;4933152;28;20083;-77
2023/01/06 04:50:32;;;;;;;1999.90;999.90;;;15.80;99.90;;;;;;4950834;28;20130;-77
2023/01/06 04:52:58;;;;;;;1999.90;999.90;;;16.00;99.90;;;;;;4944263;28;20162;-85
2023/01/06 04:55:23;;;;;;;1999.90;999.90;;;16.00;99.90;;;;;;4947574;28;20185;-87
2023/01/06 04:57:50;;;;;;;1752.30;757.00;;;16.00;99.90;;;;;;4943358;28;20043;-77
2023/01/06 05:00:16;;;;;;;1999.90;999.90;;;16.00;99.90;;;;;;4947631;28;20050;-84
2023/01/06 05:02:42;;;;;;;1999.90;999.90;;;16.10;99.90;;;;;;4945242;28;20039;-78
2023/01/06 05:05:08;;;;;;;1999.90;999.90;;;15.30;99.90;;;;;;4948287;28;20163;-78
2023/01/06 05:07:33;;;;;;;1887.55;343.00;;;16.10;99.90;;;;;;4935585;28;20050;-78
2023/01/06 05:09:59;;;;;;;1999.90;999.90;;;15.90;99.90;;;;;;4934946;29;20039;-78
2023/01/06 05:12:25;;;;;;;1999.90;999.90;;;16.00;99.90;;;;;;4948064;28;20043;-86
2023/01/06 05:14:51;;;;;;;1999.90;999.90;;;16.00;99.90;;;;;;4946765;28;20094;-81
2023/01/06 05:17:16;;;;;;;1999.90;999.90;;;15.90;99.90;;;;;;4946531;28;20400;-81
2023/01/06 05:19:43;;;;;;;1999.90;325.90;;;16.00;99.90;;;;;;4950500;28;20035;-81
2023/01/06 05:22:10;;;;;;;1999.90;654.75;;;15.10;99.90;;;;;;4955669;28;20061;-82
2023/01/06 05:24:36;;;;;;;1999.90;999.90;;;15.00;99.90;;;;;;4947265;28;20066;-78
2023/01/06 05:27:02;;;;;;;1999.90;999.90;;;15.20;99.90;;;;;;4946951;28;20039;-79
2023/01/06 05:29:28;;;;;;;1677.63;530.90;;;16.00;99.90;;;;;;4946519;28;20043;-89
2023/01/06 05:31:54;;;;;;;1999.90;342.42;;;16.10;99.90;;;;;;4947899;28;20468;-79
2023/01/06 05:34:20;;;;;;;1999.90;550.65;;;15.00;99.90;;;;;;4946158;28;20066;-77
2023/01/06 05:36:45;;;;;;;1999.90;749.60;;;15.20;99.90;;;;;;4947533;28;20481;-89
2023/01/06 05:39:11;;;;;;;1999.90;723.50;;;16.10;99.90;;;;;;4948167;28;20643;-78
2023/01/06 05:41:37;;;;;;;1999.90;560.58;;;16.00;99.90;;;;;;4949163;28;20073;-77
2023/01/06 05:44:03;;;;;;;1999.90;781.13;;;15.10;99.90;;;;;;4946089;28;20050;-83
2023/01/06 05:46:29;;;;;;;1999.90;720.33;;;14.90;99.90;;;;;;4946693;29;20106;-78
2023/01/06 05:48:54;;;;;;;1999.90;846.03;;;15.20;99.90;;;;;;4948821;28;20476;-78
2023/01/06 05:51:20;;;;;;;1823.38;318.38;;;16.40;99.90;;;;;;4946429;29;20075;-83
2023/01/06 05:53:47;;;;;;;1999.90;389.60;;;16.40;99.90;;;;;;4948670;28;20043;-78
2023/01/06 05:56:16;;;;;;;1999.90;806.63;;;15.10;99.90;;;;;;4953964;28;20046;-80
2023/01/06 05:58:47;;;;;;;1999.90;764.35;;;15.10;99.90;;;;;;4950750;28;20035;-81
2023/01/06 06:01:24;;;;;;;1999.90;883.30;;;16.30;99.90;;;;;;4949322;28;20051;-81
2023/01/06 06:03:51;;;;;;;1999.90;166.95;;;16.40;99.90;;;;;;4934139;29;20130;-87
2023/01/06 06:06:18;;;;;;;1999.90;972.30;;;14.70;99.90;;;;;;4951251;28;20047;-81
2023/01/06 06:08:44;;;;;;;1999.90;514.33;;;16.00;99.90;;;;;;4934966;28;20054;-89
2023/01/06 06:11:13;;;;;;;1999.90;778.38;;;16.10;99.90;;;;;;4948362;28;20047;-84
2023/01/06 06:13:44;;;;;;;1999.90;958.80;;;15.80;99.90;;;;;;4946985;28;20051;-88
2023/01/06 06:16:13;;;;;;;1999.90;957.50;;;14.80;99.90;;;;;;4947484;28;20062;-86
2023/01/06 06:18:43;;;;;;;1999.90;562.53;;;14.60;99.90;;;;;;4939290;28;20062;-84
2023/01/06 06:21:10;;;;;;;1999.90;765.00;;;16.50;99.90;;;;;;4927884;29;20047;-86
2023/01/06 06:23:36;;;;;;;1999.90;617.88;;;14.70;99.90;;;;;;4946489;28;20448;-86
2023/01/06 06:26:02;;;;;;;1999.90;628.97;;;16.40;99.90;;;;;;4946056;28;20047;-86
2023/01/06 06:28:36;;;;;;;1999.90;546.60;;;15.50;99.90;;;;;;4944615;28;20489;-88
2023/01/06 06:31:16;;;;;;;1999.90;680.35;;;14.40;99.90;;;;;;4912461;29;20069;-86
2023/01/06 06:33:42;;;;;;;1999.90;631.30;;;14.60;99.90;;;;;;4946352;28;20079;-87
2023/01/06 06:36:14;;;;;;;1999.90;580.33;;;14.50;99.90;;;;;;4943530;28;20051;-89
2023/01/06 06:38:42;;;;;;;1999.90;548.70;;;14.60;99.90;;;;;;4944043;28;20078;-88
2023/01/06 06:41:07;;;;;;;1999.90;618.83;;;14.50;99.90;;;;;;4928839;28;20057;-86
2023/01/06 06:43:33;;;;;;;1999.90;583.65;;;16.60;99.90;;;;;;4947008;29;20044;-85
2023/01/06 06:45:59;;;;;;;1999.90;878.13;;;16.60;99.90;;;;;;4947090;28;20054;-87
2023/01/06 06:48:28;;;;;;;1999.90;732.88;;;14.50;99.90;;;;;;4943559;28;20474;-85
2023/01/06 06:51:06;;;;;;;1999.90;824.28;;;14.70;99.90;;;;;;4956188;28;20047;-85
2023/01/06 06:53:33;;;;;;;1999.90;997.35;;;14.60;99.90;;;;;;4949624;28;20400;-88
2023/01/06 06:55:59;;;;;;;1999.90;949.42;;;16.50;99.90;;;;;;4968711;28;20050;-86
2023/01/06 06:58:25;;;;;;;1999.90;684.65;;;16.50;99.90;;;;;;4940605;28;20059;-85
2023/01/06 07:00:51;;;;;;;1999.90;977.83;;;14.90;99.90;;;;;;4948716;28;20429;-85
2023/01/06 07:03:18;;;;;;;1999.90;714.50;;;14.60;99.90;;;;;;4970071;28;20045;-85
2023/01/06 07:05:46;;;;;;;1999.90;888.70;;;16.40;99.90;;;;;;4951298;28;20050;-89
2023/01/06 07:08:12;;;;;;;1999.90;999.90;;;16.30;99.90;;;;;;4945727;28;20043;-85
2023/01/06 07:10:38;;;;;;;1999.90;999.40;;;15.50;99.90;;;;;;4937054;29;20126;-86
2023/01/06 07:13:04;;;;;;;1999.90;999.90;;;16.40;99.90;;;;;;4952730;29;20122;-85
2023/01/06 07:15:29;;;;;;;1999.90;880.03;;;16.20;99.90;;;;;;4953029;29;20043;-86
2023/01/06 07:17:59;;;;;;;1999.90;645.03;;;16.30;99.90;;;;;;4920723;29;20553;-86
2023/01/06 07:20:25;;;;;;;1999.90;843.33;;;14.80;99.90;;;;;;4953470;28;20078;-85
2023/01/06 07:22:50;;;;;;;1999.90;999.90;;;16.40;99.90;;;;;;4951819;28;20090;-87
2023/01/06 07:25:16;;;;;;;1999.90;842.35;;;14.90;99.90;;;;;;4944991;28;20047;-89
2023/01/06 07:27:42;;;;;;;1999.90;999.90;;;15.70;99.90;;;;;;4951279;28;20073;-84
2023/01/06 07:30:09;;;;;;;1999.90;897.15;;;15.20;99.90;;;;;;4948455;28;20759;-85
2023/01/06 07:32:35;;;;;;;1999.90;999.90;;;15.90;99.90;;;;;;4942894;28;20077;-86
2023/01/06 07:35:00;;;;;;;1999.90;875.35;;;15.20;99.90;;;;;;4939352;28;20095;-86
2023/01/06 07:37:26;;;;;;;1999.90;943.60;;;15.10;99.90;;;;;;4952817;29;20103;-85
2023/01/06 07:39:52;;;;;;;1999.90;999.90;;;15.10;99.90;;;;;;4962069;28;20583;-86
2023/01/06 07:42:17;;;;;;;1999.90;999.90;;;16.00;99.90;;;;;;4950695;28;20485;-86
2023/01/06 07:44:43;;;;;;;1999.90;805.65;;;15.10;99.90;;;;;;4957033;28;20511;-85
2023/01/06 07:47:09;;;;;;;1999.90;962.15;;;16.20;99.90;;;;;;4956256;28;20051;-85
2023/01/06 07:49:35;;;;;;;1999.90;877.92;;;15.30;99.90;;;;;;4951619;28;20051;-85
2023/01/06 07:52:01;;;;;;;1999.90;548.70;;;15.30;99.90;;;;;;4954232;28;20057;-88
2023/01/06 07:54:26;;;;;;;1999.90;561.55;;;15.10;99.90;;;;;;4934807;28;20508;-87
2023/01/06 07:56:52;;;;;;;1999.90;767.33;;;15.00;99.90;;;;;;4948720;28;20084;-85
2023/01/06 07:59:18;;;;;;;1999.90;569.90;;;15.20;99.90;;;;;;4947341;29;20051;-84
2023/01/06 08:01:43;;;;;;;1999.90;397.73;;;15.40;99.90;;;;;;4957454;28;20047;-83
2023/01/06 08:04:09;;;;;;;1999.90;291.42;;;15.00;99.90;;;;;;4946233;28;20035;-84
2023/01/06 08:06:38;;;;;;;1999.90;570.40;;;15.20;99.90;;;;;;4946859;28;20403;-83
2023/01/06 08:09:04;;;;;;;1999.90;999.90;;;15.10;99.90;;;;;;4949347;28;20510;-84
2023/01/06 08:11:30;;;;;;;1999.90;999.90;;;15.60;99.90;;;;;;4952213;28;20051;-86
2023/01/06 08:13:56;;;;;;;1642.90;522.25;;;14.80;99.90;;;;;;4948625;29;20047;-84
2023/01/06 08:16:21;;;;;;;1999.90;999.90;;;15.50;99.90;;;;;;4951913;28;20083;-85
2023/01/06 08:18:47;;;;;;;1999.90;999.90;;;15.30;99.90;;;;;;4940603;29;20058;-84
2023/01/06 08:21:13;;;;;;;1999.90;999.90;;;15.30;99.90;;;;;;4951996;29;20408;-82
2023/01/06 08:23:39;;;;;;;1779.25;760.38;;;14.20;99.90;;;;;;4951458;28;20050;-84
2023/01/06 08:26:12;;;;;;;1999.90;999.90;;;14.80;99.90;;;;;;4951579;28;20046;-90
2023/01/06 08:28:38;;;;;;;1999.90;999.90;;;14.90;99.90;;;;;;4952128;28;20051;-83
2023/01/06 08:31:08;;;;;;;1686.72;755.33;;;15.00;99.90;;;;;;4949193;28;20122;-95
2023/01/06 08:33:34;;;;;;;1999.90;999.90;;;13.90;99.90;;;;;;4948850;28;20138;-82
2023/01/06 08:36:04;;;;;;;1999.90;999.90;;;13.90;99.90;;;;;;4939951;29;20126;-83
2023/01/06 08:38:31;;;;;;;1747.32;763.38;;;13.90;99.90;;;;;;4956266;28;20067;-83
2023/01/06 08:40:58;;;;;;;1999.90;999.90;;;13.90;99.90;;;;;;4956533;29;20404;-83
2023/01/06 08:43:25;;;;;;;1999.90;999.90;;;15.00;99.90;;;;;;4954612;29;20452;-83
2023/01/06 08:45:51;;;;;;;1999.90;999.90;;;13.60;99.90;;;;;;4956754;28;20126;-82
2023/01/06 08:48:17;;;;;;;1999.90;999.90;;;15.10;99.90;;;;;;4940086;29;20135;-82
2023/01/06 08:50:43;;;;;;;1999.90;999.90;;;13.50;99.90;;;;;;4955854;29;20318;-82
2023/01/06 08:53:10;;;;;;;1850.90;763.42;;;14.90;99.90;;;;;;4955646;29;20039;-82
2023/01/06 08:55:40;;;;;;;1999.90;999.90;;;13.70;99.90;;;;;;4952144;28;20079;-89
2023/01/06 08:58:08;;;;;;;1999.90;999.90;;;14.60;99.90;;;;;;4954811;29;20071;-82
2023/01/06 09:00:34;;;;;;;1999.90;999.90;;;13.30;99.90;;;;;;4956047;29;20488;-82
2023/01/06 09:03:00;;;;;;;1586.55;752.47;;;14.20;99.90;;;;;;4955602;29;20048;-82
2023/01/06 09:05:26;;;;;;;1999.90;999.90;;;14.60;99.90;;;;;;4954217;28;20121;-83
2023/01/06 09:07:53;;;;;;;1999.90;999.90;;;13.80;99.90;;;;;;4954432;28;20392;-87
2023/01/06 09:10:19;;;;;;;1999.90;999.90;;;14.00;99.90;;;;;;4938996;28;20054;-83
2023/01/06 09:12:45;;;;;;;1999.90;999.90;;;14.70;99.90;;;;;;4955650;28;20307;-83
2023/01/06 09:15:12;;;;;;;1999.90;999.90;;;14.50;99.90;;;;;;4970162;28;20409;-83
2023/01/06 09:17:38;;;;;;;1999.90;999.90;;;13.80;99.90;;;;;;4965263;28;20047;-82
2023/01/06 09:20:04;;;;;;;1999.90;999.90;;;14.20;99.90;;;;;;4963580;28;20054;-83
2023/01/06 09:22:30;;;;;;;1999.90;999.90;;;13.70;99.90;;;;;;4922498;29;20058;-83
2023/01/06 09:24:56;;;;;;;1999.90;999.90;;;14.10;99.90;;;;;;4940550;28;20050;-83
2023/01/06 09:27:22;;;;;;;1999.90;999.90;;;14.90;99.90;;;;;;4955262;28;20051;-83
2023/01/06 09:29:47;;;;;;;1999.90;999.90;;;14.80;99.90;;;;;;4969791;28;20499;-84
2023/01/06 09:32:13;;;;;;;1999.90;999.90;;;13.60;99.90;;;;;;4946072;28;20056;-83
2023/01/06 09:34:39;;;;;;;1999.90;999.90;;;14.90;99.90;;;;;;4958895;28;20046;-86
2023/01/06 09:37:05;;;;;;;1999.90;999.90;;;14.70;99.90;;;;;;4953634;28;20532;-83
2023/01/06 09:39:30;;;;;;;1972.22;336.23;;;13.60;99.90;;;;;;4965621;28;20082;-84
2023/01/06 09:42:14;;;;;;;1999.90;774.03;;;14.90;99.90;;;;;;4973682;28;20130;-84
2023/01/06 09:45:04;;;;;;;1999.90;999.90;;;14.90;99.90;;;;;;4966310;28;20409;-83
2023/01/06 09:47:46;;;;;;;1999.90;999.90;;;14.40;99.90;;;;;;4964213;28;20059;-84
2023/01/06 09:50:38;;;;;;;1438.30;47.88;;;14.60;99.90;;;;;;4949860;28;20119;-84
2023/01/06 09:53:08;;;;;;;1999.90;999.90;;;13.50;99.90;;;;;;4953011;28;20106;-88
2023/01/06 09:55:37;;;;;;;1999.90;999.90;;;13.70;99.90;;;;;;4936994;29;20086;-84
2023/01/06 09:58:17;;;;;;;1999.90;999.90;;;14.40;99.90;;;;;;4951039;28;20055;-84
2023/01/06 10:00:44;;;;;;;1999.90;999.90;;;13.80;99.90;;;;;;4949714;28;20106;-86
2023/01/06 10:03:17;;;;;;;1999.90;999.90;;;14.30;99.90;;;;;;4958318;28;20039;-84
2023/01/06 10:05:45;;;;;;;1999.90;999.90;;;13.50;99.90;;;;;;4954935;28;20055;-86
2023/01/06 10:08:48;;;;;;;1999.90;999.90;;;13.50;99.90;;;;;;4948740;28;20058;-86
2023/01/06 10:11:50;;;;;;;1999.90;999.90;;;13.60;99.90;;;;;;4950389;28;20411;-88
2023/01/06 10:14:22;;;;;;;1999.90;999.90;;;14.70;99.90;;;;;;4961277;28;20047;-85
2023/01/06 10:17:10;;;;;;;1999.90;999.90;;;13.70;99.90;;;;;;4974023;28;20050;-85
2023/01/06 10:20:01;;;;;;;1999.90;999.90;;;13.50;99.90;;;;;;4934688;29;20055;-85
2023/01/06 10:22:29;;;;;;;1999.90;999.90;;;16.50;99.90;;;;;;4949676;28;20051;-85
2023/01/06 10:25:17;;;;;;;1999.90;999.90;;;14.40;99.90;;;;;;4937267;29;20058;-84
2023/01/06 10:27:59;;;;;;;1999.90;999.90;;;15.90;99.90;;;;;;4959018;28;20058;-85
2023/01/06 10:30:33;;;;;;;1999.90;999.90;;;14.30;99.90;;;;;;4953239;28;20055;-84
2023/01/06 10:33:05;;;;;;;1999.90;999.90;;;16.00;99.90;;;;;;4935416;28;20051;-86
2023/01/06 10:35:31;;;;;;;1999.90;999.90;;;16.00;99.90;;;;;;4946058;28;20051;-84
2023/01/06 10:38:02;;;;;;;1665.35;755.80;;;15.30;99.90;;;;;;4956786;28;20626;-84
2023/01/06 10:40:29;;;;;;;1999.90;999.90;;;15.10;99.90;;;;;;4953257;28;20392;-84
2023/01/06 10:43:02;;;;;;;1999.90;999.90;;;14.00;99.90;;;;;;4920683;28;20043;-85
2023/01/06 10:45:45;;;;;;;1999.90;999.90;;;14.90;99.90;;;;;;4954997;28;20105;-85
2023/01/06 10:48:22;;;;;;;1999.90;999.90;;;14.60;99.90;;;;;;4953884;28;20047;-85
2023/01/06 10:50:48;;;;;;;1999.90;999.90;;;15.40;99.90;;;;;;4953930;29;20130;-84
2023/01/06 10:53:15;;;;;;;1999.90;999.90;;;15.60;99.90;;;;;;4931581;28;20649;-84
2023/01/06 10:55:48;;;;;;;1999.90;999.90;;;15.70;99.90;;;;;;4949592;28;20536;-85
2023/01/06 10:58:37;;;;;;;1999.90;999.90;;;15.50;99.90;;;;;;4937388;29;20062;-82
2023/01/06 11:01:11;;;;;;;1999.90;999.90;;;15.70;99.90;;;;;;4966980;28;20057;-82
2023/01/06 11:03:41;;;;;;;1999.90;999.90;;;15.70;99.90;;;;;;4940331;29;20047;-82
2023/01/06 11:06:19;;;;;;;1999.90;999.90;;;15.70;99.90;;;;;;4934953;29;20489;-83
2023/01/06 11:08:44;;;;;;;1999.90;999.90;;;15.60;99.90;;;;;;4951564;28;20055;-82
2023/01/06 11:11:13;;;;;;;1999.90;999.90;;;15.30;99.90;;;;;;4954680;28;20061;-81
2023/01/06 11:13:44;;;;;;;1999.90;999.90;;;14.80;99.90;;;;;;4951572;29;20043;-85
2023/01/06 11:16:37;;;;;;;1999.90;999.90;;;14.30;99.90;;;;;;4950252;29;20118;-79
2023/01/06 11:19:05;;;;;;;1999.90;999.90;;;14.10;99.90;;;;;;4950524;29;20059;-78
2023/01/06 11:21:42;;;;;;;1999.90;999.90;;;15.20;99.90;;;;;;4953594;28;20133;-79
2023/01/06 11:24:13;;;;;;;1999.90;999.90;;;15.30;99.90;;;;;;4936011;29;20055;-79
2023/01/06 11:26:50;;;;;;;1999.90;999.90;;;14.00;99.90;;;;;;4951704;29;20130;-79
2023/01/06 11:29:22;;;;;;;1957.10;783.33;;;14.10;99.90;;;;;;4949623;28;20512;-78
2023/01/06 11:31:49;;;;;;;1630.32;753.78;;;14.40;99.90;;;;;;4935090;29;20051;-78
2023/01/06 11:34:21;;;;;;;1999.90;999.90;;;15.50;99.90;;;;;;4945734;28;20074;-78
2023/01/06 11:36:47;;;;;;;1999.90;999.90;;;14.00;99.90;;;;;;4937009;29;20477;-78
2023/01/06 11:39:20;;;;;;;1999.90;999.90;;;14.40;99.90;;;;;;4952713;28;20063;-77
2023/01/06 11:41:50;;;;;;;1999.90;999.90;;;14.90;99.90;;;;;;4953724;28;20094;-78
2023/01/06 11:44:37;;;;;;;1999.90;999.90;;;14.50;99.90;;;;;;4943720;28;20511;-77
2023/01/06 11:47:07;;;;;;;1999.90;999.90;;;15.30;99.90;;;;;;4949259;28;20510;-78
2023/01/06 11:49:59;;;;;;;1999.90;999.90;;;15.00;99.90;;;;;;4954022;28;20134;-77
2023/01/06 11:52:31;;;;;;;1999.90;999.90;;;14.20;99.90;;;;;;4952940;29;20047;-78
2023/01/06 11:55:06;;;;;;;1999.90;999.90;;;15.00;99.90;;;;;;4953367;28;20043;-77
2023/01/06 11:57:39;;;;;;;1999.90;999.90;;;15.30;99.90;;;;;;4951372;28;20077;-76
2023/01/06 12:00:32;;;;;;;1999.90;999.90;;;15.70;99.90;;;;;;4953214;28;20054;-77
2023/01/06 12:03:24;;;;;;;1999.90;999.90;;;14.80;99.90;;;;;;4951931;29;20054;-77
2023/01/06 12:06:17;;;;;;;1999.90;999.90;;;15.10;99.90;;;;;;4956730;28;20063;-76
2023/01/06 12:08:49;;;;;;;1657.78;762.20;;;15.70;99.90;;;;;;4955810;29;20412;-77
2023/01/06 12:11:37;;;;;;;1999.90;999.90;;;14.70;99.90;;;;;;4955836;29;20055;-78
2023/01/06 12:14:03;;;;;;;1999.90;999.90;;;15.30;99.90;;;;;;4957013;29;20039;-76
2023/01/06 12:16:41;;;;;;;1999.90;999.90;;;14.80;99.90;;;;;;4955162;29;20055;-76
2023/01/06 12:19:16;;;;;;;1999.90;999.90;;;14.80;99.90;;;;;;4957141;28;20071;-75
2023/01/06 12:21:42;;;;;;;1999.90;999.90;;;15.20;99.90;;;;;;4955734;28;20048;-80